Maxwell, Texas
Current Conditions -  °F | °C
As of 12:51 PM on Friday 28 Nov 2014 (Local Time) from KBAZ Reporting Station
Clear Clear  
Wind Chill: 72°   Ceiling: Unl
Heat Index: 72°   Visibility: 10mi
Dew Point: 51°   Wind: 15mph
Humidity: 48%   Direction: 210°SSW
Pressure: 30.19"   Gusts: NA
Location:  29.88°N, 97.79°W
Report Text: KBAZ 281851Z 21013KT 10SM CLR 22/11 A3019 RMK AO2 SLP220 T02220106
Loading
Personal Weather Stations






























Interactive Weather Map New forecast layout! Learn more

10-Day Weather Forecast

Advertisements
Track Severe Weather on mobile